sensor_id;sensor_type;location;lat;lon;timestamp;P1;durP1;ratioP1;P2;durP2;ratioP2
39994;SDS011;25686;51.908;10.418;2022-07-06T00:00:59;5.63;;;1.25;;
39994;SDS011;25686;51.908;10.418;2022-07-06T00:03:00;4.95;;;1.52;;
39994;SDS011;25686;51.908;10.418;2022-07-06T00:05:01;4.05;;;1.30;;
39994;SDS011;25686;51.908;10.418;2022-07-06T00:07:02;2.97;;;1.10;;
39994;SDS011;25686;51.908;10.418;2022-07-06T00:09:04;4.10;;;1.33;;
39994;SDS011;25686;51.908;10.418;2022-07-06T00:11:05;3.85;;;1.50;;
39994;SDS011;25686;51.908;10.418;2022-07-06T00:13:06;4.28;;;1.40;;
39994;SDS011;25686;51.908;10.418;2022-07-06T00:15:07;6.22;;;1.33;;
39994;SDS011;25686;51.908;10.418;2022-07-06T00:17:08;5.05;;;1.10;;
39994;SDS011;25686;51.908;10.418;2022-07-06T00:19:09;6.18;;;1.50;;
39994;SDS011;25686;51.908;10.418;2022-07-06T00:21:10;5.70;;;1.45;;
39994;SDS011;25686;51.908;10.418;2022-07-06T00:23:11;7.43;;;1.33;;
39994;SDS011;25686;51.908;10.418;2022-07-06T00:25:12;4.15;;;1.50;;
39994;SDS011;25686;51.908;10.418;2022-07-06T00:27:13;3.97;;;1.50;;
39994;SDS011;25686;51.908;10.418;2022-07-06T00:29:14;3.08;;;1.38;;
39994;SDS011;25686;51.908;10.418;2022-07-06T00:31:15;6.30;;;1.90;;
39994;SDS011;25686;51.908;10.418;2022-07-06T00:33:16;6.20;;;1.42;;
39994;SDS011;25686;51.908;10.418;2022-07-06T00:35:17;6.93;;;1.63;;
39994;SDS011;25686;51.908;10.418;2022-07-06T00:37:18;7.22;;;1.60;;
39994;SDS011;25686;51.908;10.418;2022-07-06T00:39:19;6.18;;;1.67;;
39994;SDS011;25686;51.908;10.418;2022-07-06T00:41:21;5.32;;;1.33;;
39994;SDS011;25686;51.908;10.418;2022-07-06T00:43:22;4.90;;;1.63;;
39994;SDS011;25686;51.908;10.418;2022-07-06T00:45:23;3.60;;;1.40;;
39994;SDS011;25686;51.908;10.418;2022-07-06T00:47:24;5.85;;;1.73;;
39994;SDS011;25686;51.908;10.418;2022-07-06T00:49:25;6.32;;;1.40;;
39994;SDS011;25686;51.908;10.418;2022-07-06T00:51:44;9.88;;;1.52;;
39994;SDS011;25686;51.908;10.418;2022-07-06T00:53:45;6.97;;;1.50;;
39994;SDS011;25686;51.908;10.418;2022-07-06T00:55:46;8.50;;;1.70;;
39994;SDS011;25686;51.908;10.418;2022-07-06T00:57:48;7.03;;;1.38;;
39994;SDS011;25686;51.908;10.418;2022-07-06T00:59:49;5.55;;;1.40;;
39994;SDS011;25686;51.908;10.418;2022-07-06T01:01:50;2.85;;;1.33;;
39994;SDS011;25686;51.908;10.418;2022-07-06T01:03:51;7.78;;;1.63;;
39994;SDS011;25686;51.908;10.418;2022-07-06T01:05:52;7.80;;;1.60;;
39994;SDS011;25686;51.908;10.418;2022-07-06T01:07:53;4.35;;;1.80;;
39994;SDS011;25686;51.908;10.418;2022-07-06T01:09:54;6.60;;;1.40;;
39994;SDS011;25686;51.908;10.418;2022-07-06T01:11:55;5.35;;;1.80;;
39994;SDS011;25686;51.908;10.418;2022-07-06T01:13:56;10.18;;;1.52;;
39994;SDS011;25686;51.908;10.418;2022-07-06T01:15:58;4.47;;;1.45;;
39994;SDS011;25686;51.908;10.418;2022-07-06T01:17:59;5.18;;;1.55;;
39994;SDS011;25686;51.908;10.418;2022-07-06T01:20:10;5.03;;;1.52;;
39994;SDS011;25686;51.908;10.418;2022-07-06T01:22:11;4.95;;;1.67;;
39994;SDS011;25686;51.908;10.418;2022-07-06T01:24:12;7.68;;;1.50;;
39994;SDS011;25686;51.908;10.418;2022-07-06T01:26:14;9.50;;;1.55;;
39994;SDS011;25686;51.908;10.418;2022-07-06T01:28:15;4.95;;;1.50;;
39994;SDS011;25686;51.908;10.418;2022-07-06T01:30:17;7.00;;;1.45;;
39994;SDS011;25686;51.908;10.418;2022-07-06T01:32:18;8.38;;;1.45;;
39994;SDS011;25686;51.908;10.418;2022-07-06T01:34:19;6.32;;;1.83;;
39994;SDS011;25686;51.908;10.418;2022-07-06T01:36:20;5.40;;;1.33;;
39994;SDS011;25686;51.908;10.418;2022-07-06T01:38:21;7.40;;;1.80;;
39994;SDS011;25686;51.908;10.418;2022-07-06T01:40:22;5.90;;;1.80;;
39994;SDS011;25686;51.908;10.418;2022-07-06T01:42:23;9.45;;;1.50;;
39994;SDS011;25686;51.908;10.418;2022-07-06T01:44:24;6.18;;;1.40;;
39994;SDS011;25686;51.908;10.418;2022-07-06T01:46:25;7.25;;;1.60;;
39994;SDS011;25686;51.908;10.418;2022-07-06T01:48:26;6.82;;;1.80;;
39994;SDS011;25686;51.908;10.418;2022-07-06T01:50:26;4.60;;;1.65;;
39994;SDS011;25686;51.908;10.418;2022-07-06T01:52:27;4.55;;;1.33;;
39994;SDS011;25686;51.908;10.418;2022-07-06T01:54:28;7.63;;;1.55;;
39994;SDS011;25686;51.908;10.418;2022-07-06T01:56:29;5.03;;;1.40;;
39994;SDS011;25686;51.908;10.418;2022-07-06T01:58:30;4.07;;;1.23;;
39994;SDS011;25686;51.908;10.418;2022-07-06T02:00:31;4.95;;;1.30;;
39994;SDS011;25686;51.908;10.418;2022-07-06T02:02:32;8.85;;;1.67;;
39994;SDS011;25686;51.908;10.418;2022-07-06T02:04:33;8.48;;;1.50;;
39994;SDS011;25686;51.908;10.418;2022-07-06T02:06:34;5.18;;;1.50;;
39994;SDS011;25686;51.908;10.418;2022-07-06T02:08:35;5.93;;;1.33;;
39994;SDS011;25686;51.908;10.418;2022-07-06T02:10:36;5.70;;;1.55;;
39994;SDS011;25686;51.908;10.418;2022-07-06T02:12:37;6.72;;;1.20;;
39994;SDS011;25686;51.908;10.418;2022-07-06T02:14:38;5.72;;;1.60;;
39994;SDS011;25686;51.908;10.418;2022-07-06T02:16:39;5.25;;;1.75;;
39994;SDS011;25686;51.908;10.418;2022-07-06T02:18:40;4.55;;;1.70;;
39994;SDS011;25686;51.908;10.418;2022-07-06T02:20:41;3.60;;;1.30;;
39994;SDS011;25686;51.908;10.418;2022-07-06T02:22:42;5.32;;;1.63;;
39994;SDS011;25686;51.908;10.418;2022-07-06T02:24:43;7.60;;;1.70;;
39994;SDS011;25686;51.908;10.418;2022-07-06T02:26:44;3.83;;;1.40;;
39994;SDS011;25686;51.908;10.418;2022-07-06T02:28:45;5.50;;;1.88;;
39994;SDS011;25686;51.908;10.418;2022-07-06T02:30:47;2.15;;;1.50;;
39994;SDS011;25686;51.908;10.418;2022-07-06T02:32:48;4.20;;;1.50;;
39994;SDS011;25686;51.908;10.418;2022-07-06T02:34:49;4.72;;;1.80;;
39994;SDS011;25686;51.908;10.418;2022-07-06T02:36:50;3.35;;;1.30;;
39994;SDS011;25686;51.908;10.418;2022-07-06T02:38:51;5.40;;;1.42;;
39994;SDS011;25686;51.908;10.418;2022-07-06T02:40:51;7.00;;;1.50;;
39994;SDS011;25686;51.908;10.418;2022-07-06T02:42:52;4.45;;;1.30;;
39994;SDS011;25686;51.908;10.418;2022-07-06T02:44:54;5.72;;;1.50;;
39994;SDS011;25686;51.908;10.418;2022-07-06T02:46:55;4.53;;;1.55;;
39994;SDS011;25686;51.908;10.418;2022-07-06T02:48:55;3.17;;;1.30;;
39994;SDS011;25686;51.908;10.418;2022-07-06T02:50:57;5.72;;;1.52;;
39994;SDS011;25686;51.908;10.418;2022-07-06T02:52:58;3.60;;;1.50;;
39994;SDS011;25686;51.908;10.418;2022-07-06T02:55:01;5.43;;;1.80;;
39994;SDS011;25686;51.908;10.418;2022-07-06T02:57:02;10.18;;;1.67;;
39994;SDS011;25686;51.908;10.418;2022-07-06T02:59:03;4.82;;;1.50;;
39994;SDS011;25686;51.908;10.418;2022-07-06T03:01:04;4.50;;;1.25;;
39994;SDS011;25686;51.908;10.418;2022-07-06T03:03:05;3.30;;;1.60;;
39994;SDS011;25686;51.908;10.418;2022-07-06T03:05:07;4.13;;;1.60;;
39994;SDS011;25686;51.908;10.418;2022-07-06T03:07:08;6.35;;;1.73;;
39994;SDS011;25686;51.908;10.418;2022-07-06T03:09:09;5.90;;;1.38;;
39994;SDS011;25686;51.908;10.418;2022-07-06T03:11:10;6.78;;;1.60;;
39994;SDS011;25686;51.908;10.418;2022-07-06T03:13:10;5.80;;;1.73;;
39994;SDS011;25686;51.908;10.418;2022-07-06T03:15:11;6.43;;;1.60;;
39994;SDS011;25686;51.908;10.418;2022-07-06T03:17:12;5.35;;;1.40;;
39994;SDS011;25686;51.908;10.418;2022-07-06T03:19:13;4.63;;;1.08;;
39994;SDS011;25686;51.908;10.418;2022-07-06T03:21:14;4.05;;;1.30;;
39994;SDS011;25686;51.908;10.418;2022-07-06T03:23:15;4.32;;;1.48;;
39994;SDS011;25686;51.908;10.418;2022-07-06T03:25:16;3.92;;;1.20;;
39994;SDS011;25686;51.908;10.418;2022-07-06T03:27:17;2.55;;;1.42;;
39994;SDS011;25686;51.908;10.418;2022-07-06T03:29:18;4.47;;;1.30;;
39994;SDS011;25686;51.908;10.418;2022-07-06T03:31:20;3.60;;;1.25;;
39994;SDS011;25686;51.908;10.418;2022-07-06T03:33:21;6.07;;;1.45;;
39994;SDS011;25686;51.908;10.418;2022-07-06T03:35:22;4.68;;;1.40;;
39994;SDS011;25686;51.908;10.418;2022-07-06T03:37:23;3.17;;;1.30;;
39994;SDS011;25686;51.908;10.418;2022-07-06T03:39:23;4.53;;;1.27;;
39994;SDS011;25686;51.908;10.418;2022-07-06T03:41:24;4.07;;;1.40;;
39994;SDS011;25686;51.908;10.418;2022-07-06T03:43:25;5.80;;;1.48;;
39994;SDS011;25686;51.908;10.418;2022-07-06T03:45:26;5.57;;;1.20;;
39994;SDS011;25686;51.908;10.418;2022-07-06T03:47:27;4.13;;;1.42;;
39994;SDS011;25686;51.908;10.418;2022-07-06T03:49:28;2.88;;;1.10;;
39994;SDS011;25686;51.908;10.418;2022-07-06T03:51:29;4.40;;;1.15;;
39994;SDS011;25686;51.908;10.418;2022-07-06T03:53:30;5.57;;;1.23;;
39994;SDS011;25686;51.908;10.418;2022-07-06T03:55:31;6.28;;;1.40;;
39994;SDS011;25686;51.908;10.418;2022-07-06T03:57:32;2.58;;;1.10;;
39994;SDS011;25686;51.908;10.418;2022-07-06T03:59:33;2.72;;;1.17;;
39994;SDS011;25686;51.908;10.418;2022-07-06T04:01:34;3.30;;;1.38;;
39994;SDS011;25686;51.908;10.418;2022-07-06T04:03:35;4.55;;;1.30;;
39994;SDS011;25686;51.908;10.418;2022-07-06T04:05:36;6.07;;;1.40;;
39994;SDS011;25686;51.908;10.418;2022-07-06T04:07:37;2.55;;;1.30;;
39994;SDS011;25686;51.908;10.418;2022-07-06T04:09:38;3.53;;;1.20;;
39994;SDS011;25686;51.908;10.418;2022-07-06T04:11:38;5.18;;;1.40;;
39994;SDS011;25686;51.908;10.418;2022-07-06T04:13:39;3.08;;;1.20;;
39994;SDS011;25686;51.908;10.418;2022-07-06T04:15:40;2.42;;;1.10;;
39994;SDS011;25686;51.908;10.418;2022-07-06T04:17:41;6.40;;;1.48;;
39994;SDS011;25686;51.908;10.418;2022-07-06T04:19:55;4.85;;;1.40;;
39994;SDS011;25686;51.908;10.418;2022-07-06T04:21:56;3.13;;;1.30;;
39994;SDS011;25686;51.908;10.418;2022-07-06T04:23:57;4.20;;;1.25;;
39994;SDS011;25686;51.908;10.418;2022-07-06T04:25:58;4.22;;;1.17;;
39994;SDS011;25686;51.908;10.418;2022-07-06T04:27:59;5.30;;;1.50;;
39994;SDS011;25686;51.908;10.418;2022-07-06T04:30:00;5.47;;;1.40;;
39994;SDS011;25686;51.908;10.418;2022-07-06T04:32:01;4.55;;;1.00;;
39994;SDS011;25686;51.908;10.418;2022-07-06T04:34:02;5.35;;;1.30;;
39994;SDS011;25686;51.908;10.418;2022-07-06T04:36:03;2.90;;;1.00;;
39994;SDS011;25686;51.908;10.418;2022-07-06T04:38:05;6.97;;;1.40;;
39994;SDS011;25686;51.908;10.418;2022-07-06T04:40:06;6.18;;;1.40;;
39994;SDS011;25686;51.908;10.418;2022-07-06T04:42:07;4.85;;;1.13;;
39994;SDS011;25686;51.908;10.418;2022-07-06T04:44:08;4.80;;;1.30;;
39994;SDS011;25686;51.908;10.418;2022-07-06T04:46:09;8.32;;;1.58;;
39994;SDS011;25686;51.908;10.418;2022-07-06T04:48:10;3.13;;;0.88;;
39994;SDS011;25686;51.908;10.418;2022-07-06T04:50:11;5.97;;;1.00;;
39994;SDS011;25686;51.908;10.418;2022-07-06T04:52:12;3.72;;;0.95;;
39994;SDS011;25686;51.908;10.418;2022-07-06T04:54:13;5.13;;;1.23;;
39994;SDS011;25686;51.908;10.418;2022-07-06T04:56:14;3.95;;;1.08;;
39994;SDS011;25686;51.908;10.418;2022-07-06T04:58:14;6.00;;;1.20;;
39994;SDS011;25686;51.908;10.418;2022-07-06T05:00:15;6.95;;;1.10;;
39994;SDS011;25686;51.908;10.418;2022-07-06T05:02:16;2.88;;;1.00;;
39994;SDS011;25686;51.908;10.418;2022-07-06T05:04:17;3.45;;;1.05;;
39994;SDS011;25686;51.908;10.418;2022-07-06T05:06:19;1.85;;;0.95;;
39994;SDS011;25686;51.908;10.418;2022-07-06T05:08:20;4.28;;;1.10;;
39994;SDS011;25686;51.908;10.418;2022-07-06T05:10:21;4.25;;;1.00;;
39994;SDS011;25686;51.908;10.418;2022-07-06T05:12:22;4.05;;;1.10;;
39994;SDS011;25686;51.908;10.418;2022-07-06T05:14:23;5.20;;;1.10;;
39994;SDS011;25686;51.908;10.418;2022-07-06T05:16:24;5.60;;;1.20;;
39994;SDS011;25686;51.908;10.418;2022-07-06T05:18:25;4.45;;;1.08;;
39994;SDS011;25686;51.908;10.418;2022-07-06T05:20:26;3.92;;;1.00;;
39994;SDS011;25686;51.908;10.418;2022-07-06T05:22:27;3.05;;;1.05;;
39994;SDS011;25686;51.908;10.418;2022-07-06T05:24:28;4.28;;;0.88;;
39994;SDS011;25686;51.908;10.418;2022-07-06T05:26:29;5.55;;;0.95;;
39994;SDS011;25686;51.908;10.418;2022-07-06T05:28:30;4.70;;;0.93;;
39994;SDS011;25686;51.908;10.418;2022-07-06T05:30:30;4.57;;;0.93;;
39994;SDS011;25686;51.908;10.418;2022-07-06T05:32:31;6.25;;;0.90;;
39994;SDS011;25686;51.908;10.418;2022-07-06T05:34:32;5.88;;;1.05;;
39994;SDS011;25686;51.908;10.418;2022-07-06T05:36:33;3.80;;;1.20;;
39994;SDS011;25686;51.908;10.418;2022-07-06T05:38:34;4.70;;;1.00;;
39994;SDS011;25686;51.908;10.418;2022-07-06T05:40:35;4.90;;;1.23;;
39994;SDS011;25686;51.908;10.418;2022-07-06T05:42:36;7.35;;;1.50;;
39994;SDS011;25686;51.908;10.418;2022-07-06T05:44:37;5.50;;;1.10;;
39994;SDS011;25686;51.908;10.418;2022-07-06T05:46:38;3.38;;;1.15;;
39994;SDS011;25686;51.908;10.418;2022-07-06T05:48:39;4.38;;;1.00;;
39994;SDS011;25686;51.908;10.418;2022-07-06T05:50:59;4.97;;;1.10;;
39994;SDS011;25686;51.908;10.418;2022-07-06T05:53:00;5.15;;;1.02;;
39994;SDS011;25686;51.908;10.418;2022-07-06T05:55:02;5.47;;;1.00;;
39994;SDS011;25686;51.908;10.418;2022-07-06T05:57:03;3.70;;;1.00;;
39994;SDS011;25686;51.908;10.418;2022-07-06T05:59:04;7.93;;;0.90;;
39994;SDS011;25686;51.908;10.418;2022-07-06T06:01:04;8.70;;;1.25;;
39994;SDS011;25686;51.908;10.418;2022-07-06T06:03:07;3.47;;;0.90;;
39994;SDS011;25686;51.908;10.418;2022-07-06T06:05:08;8.43;;;1.00;;
39994;SDS011;25686;51.908;10.418;2022-07-06T06:07:10;3.90;;;0.90;;
39994;SDS011;25686;51.908;10.418;2022-07-06T06:09:11;6.68;;;1.10;;
39994;SDS011;25686;51.908;10.418;2022-07-06T06:11:14;5.15;;;1.38;;
39994;SDS011;25686;51.908;10.418;2022-07-06T06:13:15;5.68;;;1.13;;
39994;SDS011;25686;51.908;10.418;2022-07-06T06:15:16;4.25;;;1.10;;
39994;SDS011;25686;51.908;10.418;2022-07-06T06:17:17;5.63;;;1.13;;
39994;SDS011;25686;51.908;10.418;2022-07-06T06:19:18;3.28;;;1.20;;
39994;SDS011;25686;51.908;10.418;2022-07-06T06:21:19;4.68;;;0.90;;
39994;SDS011;25686;51.908;10.418;2022-07-06T06:23:20;2.63;;;0.82;;
39994;SDS011;25686;51.908;10.418;2022-07-06T06:25:26;3.40;;;0.85;;
39994;SDS011;25686;51.908;10.418;2022-07-06T06:27:27;8.10;;;1.35;;
39994;SDS011;25686;51.908;10.418;2022-07-06T06:29:28;3.72;;;1.15;;
39994;SDS011;25686;51.908;10.418;2022-07-06T06:31:29;3.45;;;1.10;;
39994;SDS011;25686;51.908;10.418;2022-07-06T06:33:30;6.07;;;1.10;;
39994;SDS011;25686;51.908;10.418;2022-07-06T06:35:31;10.52;;;1.17;;
39994;SDS011;25686;51.908;10.418;2022-07-06T06:37:32;8.20;;;1.08;;
39994;SDS011;25686;51.908;10.418;2022-07-06T06:39:34;1.50;;;0.88;;
39994;SDS011;25686;51.908;10.418;2022-07-06T06:41:35;6.35;;;1.20;;
39994;SDS011;25686;51.908;10.418;2022-07-06T06:43:36;5.47;;;1.02;;
39994;SDS011;25686;51.908;10.418;2022-07-06T06:45:37;7.32;;;1.10;;
39994;SDS011;25686;51.908;10.418;2022-07-06T06:47:38;6.63;;;1.10;;
39994;SDS011;25686;51.908;10.418;2022-07-06T06:49:39;4.80;;;1.00;;
39994;SDS011;25686;51.908;10.418;2022-07-06T06:51:40;3.80;;;0.75;;
39994;SDS011;25686;51.908;10.418;2022-07-06T06:53:41;5.38;;;0.85;;
39994;SDS011;25686;51.908;10.418;2022-07-06T06:55:42;4.00;;;1.10;;
39994;SDS011;25686;51.908;10.418;2022-07-06T06:57:43;4.28;;;0.90;;
39994;SDS011;25686;51.908;10.418;2022-07-06T06:59:44;6.53;;;1.10;;
39994;SDS011;25686;51.908;10.418;2022-07-06T07:01:45;4.22;;;0.95;;
39994;SDS011;25686;51.908;10.418;2022-07-06T07:03:46;5.43;;;1.08;;
39994;SDS011;25686;51.908;10.418;2022-07-06T07:05:47;5.18;;;1.02;;
39994;SDS011;25686;51.908;10.418;2022-07-06T07:07:48;3.47;;;0.98;;
39994;SDS011;25686;51.908;10.418;2022-07-06T07:09:49;4.30;;;0.90;;
39994;SDS011;25686;51.908;10.418;2022-07-06T07:11:50;3.95;;;0.82;;
39994;SDS011;25686;51.908;10.418;2022-07-06T07:13:51;4.45;;;1.17;;
39994;SDS011;25686;51.908;10.418;2022-07-06T07:15:52;5.18;;;1.00;;
39994;SDS011;25686;51.908;10.418;2022-07-06T07:17:53;7.78;;;1.23;;
39994;SDS011;25686;51.908;10.418;2022-07-06T07:19:54;5.13;;;0.98;;
39994;SDS011;25686;51.908;10.418;2022-07-06T07:21:57;5.53;;;1.13;;
39994;SDS011;25686;51.908;10.418;2022-07-06T07:23:58;2.75;;;0.90;;
39994;SDS011;25686;51.908;10.418;2022-07-06T07:25:59;3.08;;;0.95;;
39994;SDS011;25686;51.908;10.418;2022-07-06T07:28:00;1.55;;;1.00;;
39994;SDS011;25686;51.908;10.418;2022-07-06T07:30:01;5.53;;;1.25;;
39994;SDS011;25686;51.908;10.418;2022-07-06T07:32:01;5.20;;;0.98;;
39994;SDS011;25686;51.908;10.418;2022-07-06T07:34:02;6.05;;;1.20;;
39994;SDS011;25686;51.908;10.418;2022-07-06T07:36:03;5.60;;;0.90;;
39994;SDS011;25686;51.908;10.418;2022-07-06T07:38:04;4.78;;;0.80;;
39994;SDS011;25686;51.908;10.418;2022-07-06T07:40:06;5.18;;;1.05;;
39994;SDS011;25686;51.908;10.418;2022-07-06T07:42:07;5.28;;;0.90;;
39994;SDS011;25686;51.908;10.418;2022-07-06T07:44:08;5.38;;;0.98;;
39994;SDS011;25686;51.908;10.418;2022-07-06T07:46:09;5.60;;;1.13;;
39994;SDS011;25686;51.908;10.418;2022-07-06T07:48:10;5.55;;;1.27;;
39994;SDS011;25686;51.908;10.418;2022-07-06T07:50:11;4.05;;;0.90;;
39994;SDS011;25686;51.908;10.418;2022-07-06T07:52:12;1.83;;;0.90;;
39994;SDS011;25686;51.908;10.418;2022-07-06T07:54:13;4.55;;;0.98;;
39994;SDS011;25686;51.908;10.418;2022-07-06T07:56:14;3.50;;;0.90;;
39994;SDS011;25686;51.908;10.418;2022-07-06T07:58:15;4.90;;;0.95;;
39994;SDS011;25686;51.908;10.418;2022-07-06T08:00:16;4.15;;;1.10;;
39994;SDS011;25686;51.908;10.418;2022-07-06T08:02:17;1.88;;;0.98;;
39994;SDS011;25686;51.908;10.418;2022-07-06T08:04:18;1.58;;;0.80;;
39994;SDS011;25686;51.908;10.418;2022-07-06T08:06:19;6.20;;;0.95;;
39994;SDS011;25686;51.908;10.418;2022-07-06T08:08:20;2.92;;;1.02;;
39994;SDS011;25686;51.908;10.418;2022-07-06T08:10:21;4.22;;;1.23;;
39994;SDS011;25686;51.908;10.418;2022-07-06T08:12:22;1.80;;;0.75;;
39994;SDS011;25686;51.908;10.418;2022-07-06T08:14:23;1.55;;;1.08;;
39994;SDS011;25686;51.908;10.418;2022-07-06T08:16:24;5.55;;;1.30;;
39994;SDS011;25686;51.908;10.418;2022-07-06T08:18:25;1.92;;;0.90;;
39994;SDS011;25686;51.908;10.418;2022-07-06T08:20:26;1.27;;;0.82;;
39994;SDS011;25686;51.908;10.418;2022-07-06T08:22:26;3.58;;;0.90;;
39994;SDS011;25686;51.908;10.418;2022-07-06T08:24:29;2.58;;;0.88;;
39994;SDS011;25686;51.908;10.418;2022-07-06T08:26:30;2.85;;;0.75;;
39994;SDS011;25686;51.908;10.418;2022-07-06T08:28:31;4.70;;;1.20;;
39994;SDS011;25686;51.908;10.418;2022-07-06T08:30:32;4.55;;;0.80;;
39994;SDS011;25686;51.908;10.418;2022-07-06T08:32:36;3.85;;;1.00;;
39994;SDS011;25686;51.908;10.418;2022-07-06T08:34:38;3.92;;;0.93;;
39994;SDS011;25686;51.908;10.418;2022-07-06T08:36:39;3.95;;;0.93;;
39994;SDS011;25686;51.908;10.418;2022-07-06T08:38:40;4.68;;;1.05;;
39994;SDS011;25686;51.908;10.418;2022-07-06T08:40:41;7.68;;;1.10;;
39994;SDS011;25686;51.908;10.418;2022-07-06T08:42:44;3.38;;;1.20;;
39994;SDS011;25686;51.908;10.418;2022-07-06T08:44:46;4.03;;;1.13;;
39994;SDS011;25686;51.908;10.418;2022-07-06T08:46:47;3.97;;;1.08;;
39994;SDS011;25686;51.908;10.418;2022-07-06T08:48:49;2.75;;;0.73;;
39994;SDS011;25686;51.908;10.418;2022-07-06T08:50:50;3.55;;;1.00;;
39994;SDS011;25686;51.908;10.418;2022-07-06T08:52:53;3.53;;;1.10;;
39994;SDS011;25686;51.908;10.418;2022-07-06T08:54:54;3.03;;;0.75;;
39994;SDS011;25686;51.908;10.418;2022-07-06T08:56:55;3.00;;;0.90;;
39994;SDS011;25686;51.908;10.418;2022-07-06T08:58:56;6.18;;;0.90;;
39994;SDS011;25686;51.908;10.418;2022-07-06T09:00:57;2.35;;;0.90;;
39994;SDS011;25686;51.908;10.418;2022-07-06T09:02:58;3.13;;;0.90;;
39994;SDS011;25686;51.908;10.418;2022-07-06T09:04:59;4.15;;;1.20;;
39994;SDS011;25686;51.908;10.418;2022-07-06T09:07:02;3.45;;;0.90;;
39994;SDS011;25686;51.908;10.418;2022-07-06T09:09:05;4.32;;;0.98;;
39994;SDS011;25686;51.908;10.418;2022-07-06T09:11:06;3.90;;;0.80;;
39994;SDS011;25686;51.908;10.418;2022-07-06T09:13:08;2.63;;;0.80;;
39994;SDS011;25686;51.908;10.418;2022-07-06T09:15:09;2.75;;;0.80;;
39994;SDS011;25686;51.908;10.418;2022-07-06T09:17:11;3.72;;;0.73;;
39994;SDS011;25686;51.908;10.418;2022-07-06T09:19:12;3.90;;;0.70;;
39994;SDS011;25686;51.908;10.418;2022-07-06T09:21:24;4.30;;;1.02;;
39994;SDS011;25686;51.908;10.418;2022-07-06T09:23:25;3.20;;;0.98;;
39994;SDS011;25686;51.908;10.418;2022-07-06T09:25:27;4.10;;;0.60;;
39994;SDS011;25686;51.908;10.418;2022-07-06T09:27:28;3.42;;;0.90;;
39994;SDS011;25686;51.908;10.418;2022-07-06T09:29:30;2.70;;;0.80;;
39994;SDS011;25686;51.908;10.418;2022-07-06T09:31:31;3.63;;;0.80;;
39994;SDS011;25686;51.908;10.418;2022-07-06T09:33:32;4.90;;;0.82;;
39994;SDS011;25686;51.908;10.418;2022-07-06T09:35:37;3.28;;;0.80;;
39994;SDS011;25686;51.908;10.418;2022-07-06T09:37:38;3.85;;;0.65;;
39994;SDS011;25686;51.908;10.418;2022-07-06T09:39:39;5.82;;;1.00;;
39994;SDS011;25686;51.908;10.418;2022-07-06T09:41:40;3.53;;;0.77;;
39994;SDS011;25686;51.908;10.418;2022-07-06T09:43:41;1.85;;;0.70;;
39994;SDS011;25686;51.908;10.418;2022-07-06T09:45:43;6.00;;;1.00;;
39994;SDS011;25686;51.908;10.418;2022-07-06T09:47:47;5.63;;;1.00;;
39994;SDS011;25686;51.908;10.418;2022-07-06T09:49:48;3.42;;;0.90;;
39994;SDS011;25686;51.908;10.418;2022-07-06T09:51:50;6.15;;;0.80;;
39994;SDS011;25686;51.908;10.418;2022-07-06T09:53:51;3.13;;;0.50;;
39994;SDS011;25686;51.908;10.418;2022-07-06T09:55:54;4.38;;;0.55;;
39994;SDS011;25686;51.908;10.418;2022-07-06T09:57:55;3.33;;;0.60;;
39994;SDS011;25686;51.908;10.418;2022-07-06T09:59:56;2.65;;;0.50;;
39994;SDS011;25686;51.908;10.418;2022-07-06T10:02:00;2.13;;;0.60;;
39994;SDS011;25686;51.908;10.418;2022-07-06T10:04:01;2.53;;;0.70;;
39994;SDS011;25686;51.908;10.418;2022-07-06T10:06:02;2.33;;;0.80;;
39994;SDS011;25686;51.908;10.418;2022-07-06T10:08:03;2.85;;;0.80;;
39994;SDS011;25686;51.908;10.418;2022-07-06T10:10:06;2.28;;;0.60;;
39994;SDS011;25686;51.908;10.418;2022-07-06T10:12:08;1.65;;;0.50;;
39994;SDS011;25686;51.908;10.418;2022-07-06T10:14:11;3.00;;;0.47;;
39994;SDS011;25686;51.908;10.418;2022-07-06T10:16:14;2.80;;;0.60;;
39994;SDS011;25686;51.908;10.418;2022-07-06T10:18:15;3.78;;;0.73;;
39994;SDS011;25686;51.908;10.418;2022-07-06T10:20:17;3.17;;;0.60;;
39994;SDS011;25686;51.908;10.418;2022-07-06T10:22:18;2.95;;;0.80;;
39994;SDS011;25686;51.908;10.418;2022-07-06T10:24:20;3.40;;;0.65;;
39994;SDS011;25686;51.908;10.418;2022-07-06T10:26:21;2.03;;;0.60;;
39994;SDS011;25686;51.908;10.418;2022-07-06T10:28:23;4.68;;;0.88;;
39994;SDS011;25686;51.908;10.418;2022-07-06T10:30:25;6.60;;;0.70;;
39994;SDS011;25686;51.908;10.418;2022-07-06T10:32:27;2.53;;;0.40;;
39994;SDS011;25686;51.908;10.418;2022-07-06T10:34:28;1.40;;;0.50;;
39994;SDS011;25686;51.908;10.418;2022-07-06T10:36:29;1.58;;;0.60;;
39994;SDS011;25686;51.908;10.418;2022-07-06T10:38:31;2.20;;;0.57;;
39994;SDS011;25686;51.908;10.418;2022-07-06T10:40:33;3.78;;;0.70;;
39994;SDS011;25686;51.908;10.418;2022-07-06T10:42:57;2.65;;;0.68;;
39994;SDS011;25686;51.908;10.418;2022-07-06T10:44:58;4.43;;;0.80;;
39994;SDS011;25686;51.908;10.418;2022-07-06T10:46:59;3.20;;;0.70;;
39994;SDS011;25686;51.908;10.418;2022-07-06T10:48:59;3.83;;;0.90;;
39994;SDS011;25686;51.908;10.418;2022-07-06T10:51:25;0.47;;;0.40;;
39994;SDS011;25686;51.908;10.418;2022-07-06T10:53:26;2.45;;;0.65;;
39994;SDS011;25686;51.908;10.418;2022-07-06T10:55:28;1.33;;;0.50;;
39994;SDS011;25686;51.908;10.418;2022-07-06T10:57:30;5.20;;;0.73;;
39994;SDS011;25686;51.908;10.418;2022-07-06T11:00:00;4.32;;;0.80;;
39994;SDS011;25686;51.908;10.418;2022-07-06T11:02:17;2.65;;;0.60;;
39994;SDS011;25686;51.908;10.418;2022-07-06T11:04:18;4.07;;;0.70;;
39994;SDS011;25686;51.908;10.418;2022-07-06T11:06:20;2.25;;;0.75;;
39994;SDS011;25686;51.908;10.418;2022-07-06T11:08:21;3.88;;;0.70;;
39994;SDS011;25686;51.908;10.418;2022-07-06T11:10:22;3.85;;;0.77;;
39994;SDS011;25686;51.908;10.418;2022-07-06T11:12:23;3.03;;;0.70;;
39994;SDS011;25686;51.908;10.418;2022-07-06T11:14:24;3.42;;;0.60;;
39994;SDS011;25686;51.908;10.418;2022-07-06T11:16:26;6.03;;;0.70;;
39994;SDS011;25686;51.908;10.418;2022-07-06T11:18:27;3.08;;;0.60;;
39994;SDS011;25686;51.908;10.418;2022-07-06T11:20:28;1.38;;;0.60;;
39994;SDS011;25686;51.908;10.418;2022-07-06T11:22:29;1.20;;;0.40;;
39994;SDS011;25686;51.908;10.418;2022-07-06T11:24:31;1.92;;;0.50;;
39994;SDS011;25686;51.908;10.418;2022-07-06T11:26:33;3.88;;;0.70;;
39994;SDS011;25686;51.908;10.418;2022-07-06T11:28:36;1.55;;;0.47;;
39994;SDS011;25686;51.908;10.418;2022-07-06T11:30:37;1.38;;;0.50;;
39994;SDS011;25686;51.908;10.418;2022-07-06T11:32:39;5.20;;;0.70;;
39994;SDS011;25686;51.908;10.418;2022-07-06T11:34:41;1.55;;;0.50;;
39994;SDS011;25686;51.908;10.418;2022-07-06T11:36:42;3.35;;;0.57;;
39994;SDS011;25686;51.908;10.418;2022-07-06T11:38:44;2.35;;;0.70;;
39994;SDS011;25686;51.908;10.418;2022-07-06T11:40:45;1.00;;;0.40;;
39994;SDS011;25686;51.908;10.418;2022-07-06T11:42:55;1.92;;;0.40;;
39994;SDS011;25686;51.908;10.418;2022-07-06T11:44:56;1.63;;;0.50;;
39994;SDS011;25686;51.908;10.418;2022-07-06T11:46:56;1.63;;;0.40;;
39994;SDS011;25686;51.908;10.418;2022-07-06T11:49:04;1.55;;;0.50;;
39994;SDS011;25686;51.908;10.418;2022-07-06T11:51:05;2.83;;;0.60;;
39994;SDS011;25686;51.908;10.418;2022-07-06T11:53:06;4.75;;;0.60;;
39994;SDS011;25686;51.908;10.418;2022-07-06T11:55:07;1.63;;;0.40;;
39994;SDS011;25686;51.908;10.418;2022-07-06T11:57:09;1.90;;;0.30;;
39994;SDS011;25686;51.908;10.418;2022-07-06T11:59:10;3.58;;;0.40;;
39994;SDS011;25686;51.908;10.418;2022-07-06T12:01:11;2.00;;;0.60;;